sensor_id;sensor_type;location;lat;lon;timestamp;temperature;humidity
40257;DHT22;25977;45.462;9.210;2023-05-10T00:00:57;16.70;95.00
40257;DHT22;25977;45.462;9.210;2023-05-10T00:03:23;16.40;95.60
40257;DHT22;25977;45.462;9.210;2023-05-10T00:05:48;16.60;95.60
40257;DHT22;25977;45.462;9.210;2023-05-10T00:08:14;16.60;95.40
40257;DHT22;25977;45.462;9.210;2023-05-10T00:10:40;16.40;95.50
40257;DHT22;25977;45.462;9.210;2023-05-10T00:13:06;16.50;95.60
40257;DHT22;25977;45.462;9.210;2023-05-10T00:15:33;16.40;95.60
40257;DHT22;25977;45.462;9.210;2023-05-10T00:18:00;16.40;95.60
40257;DHT22;25977;45.462;9.210;2023-05-10T00:20:25;16.30;95.70
40257;DHT22;25977;45.462;9.210;2023-05-10T00:22:51;16.40;95.80
40257;DHT22;25977;45.462;9.210;2023-05-10T00:25:17;16.30;95.80
40257;DHT22;25977;45.462;9.210;2023-05-10T00:27:42;16.50;95.70
40257;DHT22;25977;45.462;9.210;2023-05-10T00:30:09;16.50;95.60
40257;DHT22;25977;45.462;9.210;2023-05-10T00:32:35;16.50;95.60
40257;DHT22;25977;45.462;9.210;2023-05-10T00:35:00;16.50;95.60
40257;DHT22;25977;45.462;9.210;2023-05-10T00:37:26;16.50;95.40
40257;DHT22;25977;45.462;9.210;2023-05-10T00:39:52;16.40;95.40
40257;DHT22;25977;45.462;9.210;2023-05-10T00:42:17;16.40;95.30
40257;DHT22;25977;45.462;9.210;2023-05-10T00:44:43;16.30;95.50
40257;DHT22;25977;45.462;9.210;2023-05-10T00:47:10;16.40;95.60
40257;DHT22;25977;45.462;9.210;2023-05-10T00:49:37;16.40;95.50
40257;DHT22;25977;45.462;9.210;2023-05-10T00:52:03;16.40;95.50
40257;DHT22;25977;45.462;9.210;2023-05-10T00:54:29;16.30;95.30
40257;DHT22;25977;45.462;9.210;2023-05-10T00:56:55;16.20;95.30
40257;DHT22;25977;45.462;9.210;2023-05-10T00:59:22;16.30;95.40
40257;DHT22;25977;45.462;9.210;2023-05-10T01:01:48;16.30;95.30
40257;DHT22;25977;45.462;9.210;2023-05-10T01:04:15;16.40;95.30
40257;DHT22;25977;45.462;9.210;2023-05-10T01:06:41;16.40;95.20
40257;DHT22;25977;45.462;9.210;2023-05-10T01:09:07;16.40;95.00
40257;DHT22;25977;45.462;9.210;2023-05-10T01:11:35;16.40;94.70
40257;DHT22;25977;45.462;9.210;2023-05-10T01:14:01;16.30;94.70
40257;DHT22;25977;45.462;9.210;2023-05-10T01:16:29;16.30;94.80
40257;DHT22;25977;45.462;9.210;2023-05-10T01:18:55;16.30;94.90
40257;DHT22;25977;45.462;9.210;2023-05-10T01:21:53;16.20;94.80
40257;DHT22;25977;45.462;9.210;2023-05-10T01:27:34;16.30;95.00
40257;DHT22;25977;45.462;9.210;2023-05-10T01:30:31;16.30;94.80
40257;DHT22;25977;45.462;9.210;2023-05-10T01:33:26;16.30;94.90
40257;DHT22;25977;45.462;9.210;2023-05-10T01:39:01;16.30;94.70
40257;DHT22;25977;45.462;9.210;2023-05-10T01:44:24;16.30;94.90
40257;DHT22;25977;45.462;9.210;2023-05-10T01:47:01;16.30;94.80
40257;DHT22;25977;45.462;9.210;2023-05-10T01:49:33;16.30;94.90
40257;DHT22;25977;45.462;9.210;2023-05-10T01:52:08;16.20;95.00
40257;DHT22;25977;45.462;9.210;2023-05-10T01:54:35;16.20;95.20
40257;DHT22;25977;45.462;9.210;2023-05-10T01:57:05;16.30;95.20
40257;DHT22;25977;45.462;9.210;2023-05-10T01:59:35;16.30;95.00
40257;DHT22;25977;45.462;9.210;2023-05-10T02:02:02;16.30;95.00
40257;DHT22;25977;45.462;9.210;2023-05-10T02:04:31;16.20;94.90
40257;DHT22;25977;45.462;9.210;2023-05-10T02:06:57;16.30;95.20
40257;DHT22;25977;45.462;9.210;2023-05-10T02:09:25;16.20;95.00
40257;DHT22;25977;45.462;9.210;2023-05-10T02:11:53;16.20;95.10
40257;DHT22;25977;45.462;9.210;2023-05-10T02:14:21;16.20;95.20
40257;DHT22;25977;45.462;9.210;2023-05-10T02:16:48;16.20;95.10
40257;DHT22;25977;45.462;9.210;2023-05-10T02:19:16;16.20;95.10
40257;DHT22;25977;45.462;9.210;2023-05-10T02:21:44;16.10;95.20
40257;DHT22;25977;45.462;9.210;2023-05-10T02:24:15;16.00;95.40
40257;DHT22;25977;45.462;9.210;2023-05-10T02:26:42;16.10;95.50
40257;DHT22;25977;45.462;9.210;2023-05-10T02:29:09;16.10;95.40
40257;DHT22;25977;45.462;9.210;2023-05-10T02:31:37;16.10;95.50
40257;DHT22;25977;45.462;9.210;2023-05-10T02:34:06;16.20;95.50
40257;DHT22;25977;45.462;9.210;2023-05-10T02:36:33;16.20;95.20
40257;DHT22;25977;45.462;9.210;2023-05-10T02:39:01;16.10;95.10
40257;DHT22;25977;45.462;9.210;2023-05-10T02:41:27;16.10;95.10
40257;DHT22;25977;45.462;9.210;2023-05-10T02:43:56;16.00;95.00
40257;DHT22;25977;45.462;9.210;2023-05-10T02:46:23;16.00;95.00
40257;DHT22;25977;45.462;9.210;2023-05-10T02:48:49;16.00;94.90
40257;DHT22;25977;45.462;9.210;2023-05-10T02:51:15;15.90;94.90
40257;DHT22;25977;45.462;9.210;2023-05-10T02:53:44;16.00;94.90
40257;DHT22;25977;45.462;9.210;2023-05-10T02:56:20;15.90;94.90
40257;DHT22;25977;45.462;9.210;2023-05-10T02:58:48;15.90;95.00
40257;DHT22;25977;45.462;9.210;2023-05-10T03:01:14;15.90;95.00
40257;DHT22;25977;45.462;9.210;2023-05-10T03:03:40;16.00;95.00
40257;DHT22;25977;45.462;9.210;2023-05-10T03:06:06;16.00;94.80
40257;DHT22;25977;45.462;9.210;2023-05-10T03:08:32;16.00;94.70
40257;DHT22;25977;45.462;9.210;2023-05-10T03:11:39;16.00;94.60
40257;DHT22;25977;45.462;9.210;2023-05-10T03:16:39;15.90;94.50
40257;DHT22;25977;45.462;9.210;2023-05-10T03:19:17;15.80;94.70
40257;DHT22;25977;45.462;9.210;2023-05-10T03:21:49;15.80;94.90
40257;DHT22;25977;45.462;9.210;2023-05-10T03:24:17;15.80;95.00
40257;DHT22;25977;45.462;9.210;2023-05-10T03:26:45;15.80;95.00
40257;DHT22;25977;45.462;9.210;2023-05-10T03:29:16;15.80;95.10
40257;DHT22;25977;45.462;9.210;2023-05-10T03:31:42;15.70;95.10
40257;DHT22;25977;45.462;9.210;2023-05-10T03:34:08;15.50;95.40
40257;DHT22;25977;45.462;9.210;2023-05-10T03:36:34;15.50;95.40
40257;DHT22;25977;45.462;9.210;2023-05-10T03:39:00;15.50;95.60
40257;DHT22;25977;45.462;9.210;2023-05-10T03:41:26;15.60;95.70
40257;DHT22;25977;45.462;9.210;2023-05-10T03:43:53;15.50;95.40
40257;DHT22;25977;45.462;9.210;2023-05-10T03:46:18;15.40;95.60
40257;DHT22;25977;45.462;9.210;2023-05-10T03:48:44;15.40;95.50
40257;DHT22;25977;45.462;9.210;2023-05-10T03:51:10;15.30;95.80
40257;DHT22;25977;45.462;9.210;2023-05-10T03:53:36;15.40;95.70
40257;DHT22;25977;45.462;9.210;2023-05-10T03:56:02;15.50;95.50
40257;DHT22;25977;45.462;9.210;2023-05-10T03:58:28;15.60;95.20
40257;DHT22;25977;45.462;9.210;2023-05-10T04:00:53;15.60;95.10
40257;DHT22;25977;45.462;9.210;2023-05-10T04:03:19;15.60;95.00
40257;DHT22;25977;45.462;9.210;2023-05-10T04:05:45;15.50;94.90
40257;DHT22;25977;45.462;9.210;2023-05-10T04:08:11;15.50;94.90
40257;DHT22;25977;45.462;9.210;2023-05-10T04:10:37;15.60;95.00
40257;DHT22;25977;45.462;9.210;2023-05-10T04:13:02;15.60;94.80
40257;DHT22;25977;45.462;9.210;2023-05-10T04:15:28;15.60;94.70
40257;DHT22;25977;45.462;9.210;2023-05-10T04:17:54;15.50;94.80
40257;DHT22;25977;45.462;9.210;2023-05-10T04:20:19;15.50;94.60
40257;DHT22;25977;45.462;9.210;2023-05-10T04:22:45;15.50;94.60
40257;DHT22;25977;45.462;9.210;2023-05-10T04:25:11;15.50;94.60
40257;DHT22;25977;45.462;9.210;2023-05-10T04:27:36;15.40;94.70
40257;DHT22;25977;45.462;9.210;2023-05-10T04:30:03;15.50;94.70
40257;DHT22;25977;45.462;9.210;2023-05-10T04:32:28;15.60;94.70
40257;DHT22;25977;45.462;9.210;2023-05-10T04:34:54;15.70;94.60
40257;DHT22;25977;45.462;9.210;2023-05-10T04:37:20;15.60;94.50
40257;DHT22;25977;45.462;9.210;2023-05-10T04:39:46;15.60;94.50
40257;DHT22;25977;45.462;9.210;2023-05-10T04:42:12;15.60;94.60
40257;DHT22;25977;45.462;9.210;2023-05-10T04:44:40;15.60;94.50
40257;DHT22;25977;45.462;9.210;2023-05-10T04:47:06;15.60;94.50
40257;DHT22;25977;45.462;9.210;2023-05-10T04:49:32;15.70;94.60
40257;DHT22;25977;45.462;9.210;2023-05-10T04:51:57;15.70;94.60
40257;DHT22;25977;45.462;9.210;2023-05-10T04:54:23;15.70;94.60
40257;DHT22;25977;45.462;9.210;2023-05-10T04:56:49;15.70;94.50
40257;DHT22;25977;45.462;9.210;2023-05-10T04:59:14;15.40;94.50
40257;DHT22;25977;45.462;9.210;2023-05-10T05:01:40;15.50;94.30
40257;DHT22;25977;45.462;9.210;2023-05-10T05:04:06;15.40;94.40
40257;DHT22;25977;45.462;9.210;2023-05-10T05:06:32;15.50;94.60
40257;DHT22;25977;45.462;9.210;2023-05-10T05:08:58;15.40;94.60
40257;DHT22;25977;45.462;9.210;2023-05-10T05:11:23;15.50;94.80
40257;DHT22;25977;45.462;9.210;2023-05-10T05:13:49;15.50;94.80
40257;DHT22;25977;45.462;9.210;2023-05-10T05:16:15;15.50;94.80
40257;DHT22;25977;45.462;9.210;2023-05-10T05:18:41;15.20;94.90
40257;DHT22;25977;45.462;9.210;2023-05-10T05:21:17;15.10;95.10
40257;DHT22;25977;45.462;9.210;2023-05-10T05:23:44;15.00;95.40
40257;DHT22;25977;45.462;9.210;2023-05-10T05:26:09;15.00;95.50
40257;DHT22;25977;45.462;9.210;2023-05-10T05:28:36;15.00;95.40
40257;DHT22;25977;45.462;9.210;2023-05-10T05:31:05;15.20;95.30
40257;DHT22;25977;45.462;9.210;2023-05-10T05:33:31;15.30;95.20
40257;DHT22;25977;45.462;9.210;2023-05-10T05:35:57;15.40;95.30
40257;DHT22;25977;45.462;9.210;2023-05-10T05:38:22;15.50;95.20
40257;DHT22;25977;45.462;9.210;2023-05-10T05:40:49;15.50;95.10
40257;DHT22;25977;45.462;9.210;2023-05-10T05:43:14;15.50;94.90
40257;DHT22;25977;45.462;9.210;2023-05-10T05:45:40;15.50;94.90
40257;DHT22;25977;45.462;9.210;2023-05-10T05:48:06;15.40;95.30
40257;DHT22;25977;45.462;9.210;2023-05-10T05:50:31;15.30;95.20
40257;DHT22;25977;45.462;9.210;2023-05-10T05:52:57;15.20;95.50
40257;DHT22;25977;45.462;9.210;2023-05-10T05:55:23;15.30;95.40
40257;DHT22;25977;45.462;9.210;2023-05-10T05:57:49;15.40;95.30
40257;DHT22;25977;45.462;9.210;2023-05-10T06:00:15;15.30;95.10
40257;DHT22;25977;45.462;9.210;2023-05-10T06:02:41;15.10;95.30
40257;DHT22;25977;45.462;9.210;2023-05-10T06:05:07;15.20;95.60
40257;DHT22;25977;45.462;9.210;2023-05-10T06:07:33;15.40;95.30
40257;DHT22;25977;45.462;9.210;2023-05-10T06:09:58;15.50;95.20
40257;DHT22;25977;45.462;9.210;2023-05-10T06:12:24;15.50;95.10
40257;DHT22;25977;45.462;9.210;2023-05-10T06:14:50;15.40;94.90
40257;DHT22;25977;45.462;9.210;2023-05-10T06:17:15;15.50;95.00
40257;DHT22;25977;45.462;9.210;2023-05-10T06:19:41;15.50;95.00
40257;DHT22;25977;45.462;9.210;2023-05-10T06:22:07;15.50;94.90
40257;DHT22;25977;45.462;9.210;2023-05-10T06:24:32;15.50;95.00
40257;DHT22;25977;45.462;9.210;2023-05-10T06:26:58;15.30;95.20
40257;DHT22;25977;45.462;9.210;2023-05-10T06:29:25;15.30;95.40
40257;DHT22;25977;45.462;9.210;2023-05-10T06:31:51;15.30;95.60
40257;DHT22;25977;45.462;9.210;2023-05-10T06:34:17;15.40;95.40
40257;DHT22;25977;45.462;9.210;2023-05-10T06:36:42;15.30;95.30
40257;DHT22;25977;45.462;9.210;2023-05-10T06:39:08;15.20;95.60
40257;DHT22;25977;45.462;9.210;2023-05-10T06:41:34;15.10;95.40
40257;DHT22;25977;45.462;9.210;2023-05-10T06:43:59;15.00;95.90
40257;DHT22;25977;45.462;9.210;2023-05-10T06:46:25;15.00;96.10
40257;DHT22;25977;45.462;9.210;2023-05-10T06:48:51;14.80;96.00
40257;DHT22;25977;45.462;9.210;2023-05-10T06:51:16;14.80;96.40
40257;DHT22;25977;45.462;9.210;2023-05-10T06:53:42;14.70;96.50
40257;DHT22;25977;45.462;9.210;2023-05-10T06:56:08;14.90;96.50
40257;DHT22;25977;45.462;9.210;2023-05-10T06:58:34;14.80;96.00
40257;DHT22;25977;45.462;9.210;2023-05-10T07:01:04;14.70;96.10
40257;DHT22;25977;45.462;9.210;2023-05-10T07:03:30;14.60;96.50
40257;DHT22;25977;45.462;9.210;2023-05-10T07:06:03;14.60;96.40
40257;DHT22;25977;45.462;9.210;2023-05-10T07:08:29;14.60;96.50
40257;DHT22;25977;45.462;9.210;2023-05-10T07:11:03;14.50;96.50
40257;DHT22;25977;45.462;9.210;2023-05-10T07:13:32;14.50;96.40
40257;DHT22;25977;45.462;9.210;2023-05-10T07:15:59;14.70;96.40
40257;DHT22;25977;45.462;9.210;2023-05-10T07:18:26;14.80;96.20
40257;DHT22;25977;45.462;9.210;2023-05-10T07:20:52;14.90;96.00
40257;DHT22;25977;45.462;9.210;2023-05-10T07:23:18;14.70;95.70
40257;DHT22;25977;45.462;9.210;2023-05-10T07:25:48;14.90;95.70
40257;DHT22;25977;45.462;9.210;2023-05-10T07:28:15;15.00;95.50
40257;DHT22;25977;45.462;9.210;2023-05-10T07:30:40;15.20;95.30
40257;DHT22;25977;45.462;9.210;2023-05-10T07:33:07;15.10;94.70
40257;DHT22;25977;45.462;9.210;2023-05-10T07:35:34;15.20;95.00
40257;DHT22;25977;45.462;9.210;2023-05-10T07:38:00;15.30;94.90
40257;DHT22;25977;45.462;9.210;2023-05-10T07:40:26;15.40;94.70
40257;DHT22;25977;45.462;9.210;2023-05-10T07:42:52;15.50;94.50
40257;DHT22;25977;45.462;9.210;2023-05-10T07:45:18;15.70;94.30
40257;DHT22;25977;45.462;9.210;2023-05-10T07:47:43;15.70;94.30
40257;DHT22;25977;45.462;9.210;2023-05-10T07:50:09;15.70;94.30
40257;DHT22;25977;45.462;9.210;2023-05-10T07:52:35;15.80;94.20
40257;DHT22;25977;45.462;9.210;2023-05-10T07:55:01;15.70;94.10
40257;DHT22;25977;45.462;9.210;2023-05-10T07:57:26;15.80;94.10
40257;DHT22;25977;45.462;9.210;2023-05-10T07:59:52;15.90;94.10
40257;DHT22;25977;45.462;9.210;2023-05-10T08:02:18;16.00;93.80
40257;DHT22;25977;45.462;9.210;2023-05-10T08:04:43;16.10;93.60
40257;DHT22;25977;45.462;9.210;2023-05-10T08:07:09;16.10;93.30
40257;DHT22;25977;45.462;9.210;2023-05-10T08:09:36;16.20;93.20
40257;DHT22;25977;45.462;9.210;2023-05-10T08:12:02;16.20;93.00
40257;DHT22;25977;45.462;9.210;2023-05-10T08:14:31;16.30;93.10
40257;DHT22;25977;45.462;9.210;2023-05-10T08:16:57;16.20;92.80
40257;DHT22;25977;45.462;9.210;2023-05-10T08:19:22;16.20;92.80
40257;DHT22;25977;45.462;9.210;2023-05-10T08:21:49;16.20;92.80
40257;DHT22;25977;45.462;9.210;2023-05-10T08:24:14;16.20;92.80
40257;DHT22;25977;45.462;9.210;2023-05-10T08:26:40;16.20;92.70
40257;DHT22;25977;45.462;9.210;2023-05-10T08:29:06;16.10;92.70
40257;DHT22;25977;45.462;9.210;2023-05-10T08:31:32;16.10;92.70
40257;DHT22;25977;45.462;9.210;2023-05-10T08:33:57;16.10;92.70
40257;DHT22;25977;45.462;9.210;2023-05-10T08:36:23;16.20;92.60
40257;DHT22;25977;45.462;9.210;2023-05-10T08:38:53;16.20;92.40
40257;DHT22;25977;45.462;9.210;2023-05-10T08:41:24;16.30;92.50
40257;DHT22;25977;45.462;9.210;2023-05-10T08:43:52;16.50;92.30
40257;DHT22;25977;45.462;9.210;2023-05-10T08:46:19;16.60;92.20
40257;DHT22;25977;45.462;9.210;2023-05-10T08:48:46;16.70;92.20
40257;DHT22;25977;45.462;9.210;2023-05-10T08:51:20;16.80;92.10
40257;DHT22;25977;45.462;9.210;2023-05-10T08:53:47;16.90;91.80
40257;DHT22;25977;45.462;9.210;2023-05-10T08:56:13;16.80;91.70
40257;DHT22;25977;45.462;9.210;2023-05-10T08:58:41;16.80;92.00
40257;DHT22;25977;45.462;9.210;2023-05-10T09:01:07;16.90;91.90
40257;DHT22;25977;45.462;9.210;2023-05-10T09:03:34;16.70;92.00
40257;DHT22;25977;45.462;9.210;2023-05-10T09:06:00;16.60;92.20
40257;DHT22;25977;45.462;9.210;2023-05-10T09:08:26;16.70;92.40
40257;DHT22;25977;45.462;9.210;2023-05-10T09:10:53;16.60;92.00
40257;DHT22;25977;45.462;9.210;2023-05-10T09:13:19;16.50;92.10
40257;DHT22;25977;45.462;9.210;2023-05-10T09:15:47;16.60;92.10
40257;DHT22;25977;45.462;9.210;2023-05-10T09:18:13;16.50;92.00
40257;DHT22;25977;45.462;9.210;2023-05-10T09:20:39;16.70;92.20
40257;DHT22;25977;45.462;9.210;2023-05-10T09:23:05;16.70;92.10
40257;DHT22;25977;45.462;9.210;2023-05-10T09:25:31;16.80;92.10
40257;DHT22;25977;45.462;9.210;2023-05-10T09:27:59;16.80;91.90
40257;DHT22;25977;45.462;9.210;2023-05-10T09:30:27;16.90;91.70
40257;DHT22;25977;45.462;9.210;2023-05-10T09:32:53;16.70;92.00
40257;DHT22;25977;45.462;9.210;2023-05-10T09:35:22;16.80;91.80
40257;DHT22;25977;45.462;9.210;2023-05-10T09:37:52;16.90;91.70
40257;DHT22;25977;45.462;9.210;2023-05-10T09:40:24;16.90;91.40
40257;DHT22;25977;45.462;9.210;2023-05-10T09:43:05;16.90;91.30
40257;DHT22;25977;45.462;9.210;2023-05-10T09:45:33;16.90;91.40
40257;DHT22;25977;45.462;9.210;2023-05-10T09:48:00;16.80;91.50
40257;DHT22;25977;45.462;9.210;2023-05-10T09:50:28;16.90;91.70
40257;DHT22;25977;45.462;9.210;2023-05-10T09:52:58;17.00;91.70
40257;DHT22;25977;45.462;9.210;2023-05-10T09:55:27;17.00;91.50
40257;DHT22;25977;45.462;9.210;2023-05-10T09:58:03;17.00;91.50
40257;DHT22;25977;45.462;9.210;2023-05-10T10:00:34;17.10;91.60
40257;DHT22;25977;45.462;9.210;2023-05-10T10:03:01;17.20;91.50
40257;DHT22;25977;45.462;9.210;2023-05-10T10:05:31;17.20;91.50
40257;DHT22;25977;45.462;9.210;2023-05-10T10:07:57;17.10;91.40
40257;DHT22;25977;45.462;9.210;2023-05-10T10:10:27;17.10;91.30
40257;DHT22;25977;45.462;9.210;2023-05-10T10:12:54;17.30;91.40
40257;DHT22;25977;45.462;9.210;2023-05-10T10:15:21;17.40;91.30
40257;DHT22;25977;45.462;9.210;2023-05-10T10:17:48;17.50;90.60
40257;DHT22;25977;45.462;9.210;2023-05-10T10:20:15;17.30;90.50
40257;DHT22;25977;45.462;9.210;2023-05-10T10:22:41;17.20;90.70
40257;DHT22;25977;45.462;9.210;2023-05-10T10:25:08;17.40;90.70
40257;DHT22;25977;45.462;9.210;2023-05-10T10:36:12;17.40;90.70
40257;DHT22;25977;45.462;9.210;2023-05-10T10:44:23;17.00;90.80
40257;DHT22;25977;45.462;9.210;2023-05-10T10:49:32;16.60;90.90
40257;DHT22;25977;45.462;9.210;2023-05-10T10:54:40;16.50;91.50
40257;DHT22;25977;45.462;9.210;2023-05-10T10:57:14;16.70;91.10
40257;DHT22;25977;45.462;9.210;2023-05-10T10:59:43;16.80;90.90
40257;DHT22;25977;45.462;9.210;2023-05-10T11:02:32;16.80;90.90
40257;DHT22;25977;45.462;9.210;2023-05-10T11:04:58;16.60;90.90
40257;DHT22;25977;45.462;9.210;2023-05-10T11:07:24;16.70;90.90
40257;DHT22;25977;45.462;9.210;2023-05-10T11:09:50;16.90;90.80
40257;DHT22;25977;45.462;9.210;2023-05-10T11:12:15;16.60;91.10
40257;DHT22;25977;45.462;9.210;2023-05-10T11:14:41;16.90;91.00
40257;DHT22;25977;45.462;9.210;2023-05-10T11:17:31;16.80;90.50
40257;DHT22;25977;45.462;9.210;2023-05-10T11:20:10;16.90;90.80
40257;DHT22;25977;45.462;9.210;2023-05-10T11:22:52;17.00;90.50
40257;DHT22;25977;45.462;9.210;2023-05-10T11:25:18;17.10;90.40
40257;DHT22;25977;45.462;9.210;2023-05-10T11:27:43;17.20;90.20
40257;DHT22;25977;45.462;9.210;2023-05-10T11:30:10;17.00;90.10
40257;DHT22;25977;45.462;9.210;2023-05-10T11:32:40;17.10;90.10
40257;DHT22;25977;45.462;9.210;2023-05-10T11:35:09;17.20;90.10
40257;DHT22;25977;45.462;9.210;2023-05-10T11:37:35;17.30;90.20
40257;DHT22;25977;45.462;9.210;2023-05-10T11:40:01;17.10;89.50
40257;DHT22;25977;45.462;9.210;2023-05-10T11:42:28;16.80;90.10
40257;DHT22;25977;45.462;9.210;2023-05-10T11:44:54;17.00;90.20
40257;DHT22;25977;45.462;9.210;2023-05-10T11:47:20;16.80;90.30
40257;DHT22;25977;45.462;9.210;2023-05-10T11:49:46;17.00;90.40
40257;DHT22;25977;45.462;9.210;2023-05-10T11:52:12;17.00;90.30
40257;DHT22;25977;45.462;9.210;2023-05-10T11:54:37;17.10;90.30
40257;DHT22;25977;45.462;9.210;2023-05-10T11:57:03;17.10;90.20
40257;DHT22;25977;45.462;9.210;2023-05-10T11:59:29;17.10;90.10
40257;DHT22;25977;45.462;9.210;2023-05-10T12:01:55;17.00;90.00
40257;DHT22;25977;45.462;9.210;2023-05-10T12:04:21;17.10;90.00
40257;DHT22;25977;45.462;9.210;2023-05-10T12:06:47;17.20;89.80
40257;DHT22;25977;45.462;9.210;2023-05-10T12:09:12;17.20;89.50
40257;DHT22;25977;45.462;9.210;2023-05-10T12:11:39;17.30;89.50
40257;DHT22;25977;45.462;9.210;2023-05-10T12:14:05;17.00;89.60
40257;DHT22;25977;45.462;9.210;2023-05-10T12:16:32;17.00;90.00
40257;DHT22;25977;45.462;9.210;2023-05-10T12:18:59;17.10;89.70
40257;DHT22;25977;45.462;9.210;2023-05-10T12:21:25;16.90;89.90
40257;DHT22;25977;45.462;9.210;2023-05-10T12:23:53;16.90;90.20
40257;DHT22;25977;45.462;9.210;2023-05-10T12:26:23;17.10;90.10
40257;DHT22;25977;45.462;9.210;2023-05-10T12:28:50;17.20;90.00
40257;DHT22;25977;45.462;9.210;2023-05-10T12:31:15;17.40;89.70
40257;DHT22;25977;45.462;9.210;2023-05-10T12:33:43;17.40;89.10
40257;DHT22;25977;45.462;9.210;2023-05-10T12:36:10;17.50;88.70
40257;DHT22;25977;45.462;9.210;2023-05-10T12:38:38;17.60;88.60
40257;DHT22;25977;45.462;9.210;2023-05-10T12:41:12;17.70;88.50
40257;DHT22;25977;45.462;9.210;2023-05-10T12:43:38;17.80;88.60
40257;DHT22;25977;45.462;9.210;2023-05-10T12:46:08;17.90;88.00
40257;DHT22;25977;45.462;9.210;2023-05-10T12:48:35;17.90;87.70
40257;DHT22;25977;45.462;9.210;2023-05-10T12:51:02;17.90;87.30
40257;DHT22;25977;45.462;9.210;2023-05-10T12:53:28;18.00;87.20
40257;DHT22;25977;45.462;9.210;2023-05-10T12:55:53;18.00;87.00
40257;DHT22;25977;45.462;9.210;2023-05-10T12:58:19;18.10;87.00
40257;DHT22;25977;45.462;9.210;2023-05-10T13:00:45;18.20;86.90
40257;DHT22;25977;45.462;9.210;2023-05-10T13:03:11;18.20;86.80
40257;DHT22;25977;45.462;9.210;2023-05-10T13:05:37;18.20;86.50
40257;DHT22;25977;45.462;9.210;2023-05-10T13:08:03;18.30;86.50
40257;DHT22;25977;45.462;9.210;2023-05-10T13:10:31;18.30;86.30
40257;DHT22;25977;45.462;9.210;2023-05-10T13:12:58;18.30;86.20
40257;DHT22;25977;45.462;9.210;2023-05-10T13:15:24;18.20;86.50
40257;DHT22;25977;45.462;9.210;2023-05-10T13:17:49;18.30;86.80
40257;DHT22;25977;45.462;9.210;2023-05-10T13:20:15;18.20;86.60
40257;DHT22;25977;45.462;9.210;2023-05-10T13:22:42;18.30;86.60
40257;DHT22;25977;45.462;9.210;2023-05-10T13:25:08;18.20;86.00
40257;DHT22;25977;45.462;9.210;2023-05-10T13:27:34;18.00;86.10
40257;DHT22;25977;45.462;9.210;2023-05-10T13:30:01;18.20;86.70
40257;DHT22;25977;45.462;9.210;2023-05-10T13:32:26;18.20;86.00
40257;DHT22;25977;45.462;9.210;2023-05-10T13:34:52;18.10;86.40
40257;DHT22;25977;45.462;9.210;2023-05-10T13:37:18;18.20;86.50
40257;DHT22;25977;45.462;9.210;2023-05-10T13:39:43;18.20;86.00
40257;DHT22;25977;45.462;9.210;2023-05-10T13:42:09;18.20;85.90
40257;DHT22;25977;45.462;9.210;2023-05-10T13:44:35;18.20;86.20
40257;DHT22;25977;45.462;9.210;2023-05-10T13:47:01;18.20;86.40
40257;DHT22;25977;45.462;9.210;2023-05-10T13:49:27;18.10;86.50
40257;DHT22;25977;45.462;9.210;2023-05-10T13:51:52;18.10;86.60
40257;DHT22;25977;45.462;9.210;2023-05-10T13:54:18;17.90;87.30
40257;DHT22;25977;45.462;9.210;2023-05-10T13:56:45;18.00;87.20
40257;DHT22;25977;45.462;9.210;2023-05-10T13:59:13;18.00;87.10
40257;DHT22;25977;45.462;9.210;2023-05-10T14:01:42;18.10;87.70
40257;DHT22;25977;45.462;9.210;2023-05-10T14:04:08;17.80;87.90
40257;DHT22;25977;45.462;9.210;2023-05-10T14:06:38;17.70;88.10
40257;DHT22;25977;45.462;9.210;2023-05-10T14:09:04;17.90;88.00
40257;DHT22;25977;45.462;9.210;2023-05-10T14:11:30;17.80;87.90
40257;DHT22;25977;45.462;9.210;2023-05-10T14:13:55;17.90;87.90
40257;DHT22;25977;45.462;9.210;2023-05-10T14:16:21;17.60;88.20
40257;DHT22;25977;45.462;9.210;2023-05-10T14:18:47;17.70;88.80
40257;DHT22;25977;45.462;9.210;2023-05-10T14:21:13;17.80;88.80
40257;DHT22;25977;45.462;9.210;2023-05-10T14:23:39;17.80;89.10
40257;DHT22;25977;45.462;9.210;2023-05-10T14:26:05;17.80;88.70
40257;DHT22;25977;45.462;9.210;2023-05-10T14:28:31;17.60;88.60
40257;DHT22;25977;45.462;9.210;2023-05-10T14:30:57;17.80;88.10
40257;DHT22;25977;45.462;9.210;2023-05-10T14:33:23;17.80;88.50
40257;DHT22;25977;45.462;9.210;2023-05-10T14:35:48;17.90;88.30
40257;DHT22;25977;45.462;9.210;2023-05-10T14:38:14;17.90;88.30
40257;DHT22;25977;45.462;9.210;2023-05-10T14:40:40;17.80;87.80
40257;DHT22;25977;45.462;9.210;2023-05-10T14:43:07;17.90;88.00
40257;DHT22;25977;45.462;9.210;2023-05-10T14:45:32;18.10;87.90
40257;DHT22;25977;45.462;9.210;2023-05-10T14:47:58;18.00;88.00
40257;DHT22;25977;45.462;9.210;2023-05-10T14:50:24;18.10;87.90
40257;DHT22;25977;45.462;9.210;2023-05-10T14:52:50;18.20;87.80
40257;DHT22;25977;45.462;9.210;2023-05-10T14:55:15;18.10;86.60
40257;DHT22;25977;45.462;9.210;2023-05-10T14:57:41;17.90;87.00
40257;DHT22;25977;45.462;9.210;2023-05-10T15:00:07;17.90;86.80
40257;DHT22;25977;45.462;9.210;2023-05-10T15:02:33;17.90;86.80
40257;DHT22;25977;45.462;9.210;2023-05-10T15:04:59;17.80;87.20
40257;DHT22;25977;45.462;9.210;2023-05-10T15:07:25;17.80;87.30
40257;DHT22;25977;45.462;9.210;2023-05-10T15:09:51;17.80;87.80
40257;DHT22;25977;45.462;9.210;2023-05-10T15:12:19;17.90;87.20
40257;DHT22;25977;45.462;9.210;2023-05-10T15:14:45;18.10;87.30
40257;DHT22;25977;45.462;9.210;2023-05-10T15:17:11;18.10;86.60
40257;DHT22;25977;45.462;9.210;2023-05-10T15:19:37;18.00;86.50
40257;DHT22;25977;45.462;9.210;2023-05-10T15:22:04;17.80;87.10
40257;DHT22;25977;45.462;9.210;2023-05-10T15:24:29;17.80;87.50
40257;DHT22;25977;45.462;9.210;2023-05-10T15:26:55;17.60;87.60
40257;DHT22;25977;45.462;9.210;2023-05-10T15:29:21;17.50;87.80
40257;DHT22;25977;45.462;9.210;2023-05-10T15:31:50;17.70;88.00
40257;DHT22;25977;45.462;9.210;2023-05-10T15:34:16;17.70;88.10
40257;DHT22;25977;45.462;9.210;2023-05-10T15:36:43;17.80;87.90
40257;DHT22;25977;45.462;9.210;2023-05-10T15:39:09;17.60;87.70
40257;DHT22;25977;45.462;9.210;2023-05-10T15:41:35;17.60;87.90
40257;DHT22;25977;45.462;9.210;2023-05-10T15:44:00;17.80;87.50
40257;DHT22;25977;45.462;9.210;2023-05-10T15:46:28;17.70;87.20
40257;DHT22;25977;45.462;9.210;2023-05-10T15:48:54;17.50;88.20
40257;DHT22;25977;45.462;9.210;2023-05-10T15:51:19;17.20;88.70
40257;DHT22;25977;45.462;9.210;2023-05-10T15:53:45;17.10;89.50
40257;DHT22;25977;45.462;9.210;2023-05-10T15:56:11;17.10;89.20
40257;DHT22;25977;45.462;9.210;2023-05-10T15:58:37;17.20;89.00
40257;DHT22;25977;45.462;9.210;2023-05-10T16:01:03;17.20;88.70